Pagrindinis puslapis
METAR-TAF:

METAR-TAF

Oro uostai :

Scammon Bay, Aliaska, Jungtinės Amerikos Valstijos

platuma: 61-50-43N, ilguma: 165-34-17W, Aukštis: 4 m

Dabartinis oras

Ataskaita buvo paskelbta 1 valandą ir 0 minutes, ne 00:56 UTC
Vėjas 14 kt iš Vakarų/Pietvakarių
Temperatūra 9°C
Drėgmė 93%
Slėgis 1001 hPa
Matomumas: 16.1 km
Išsisklaidę debesys ne aukštis 1800 ft
Išsisklaidę debesys ne aukštis 4400 ft
Su prošvaistėmis ne aukštis 5500 ft

METAR: PACM 190056Z AUTO 25014KT 10SM SCT018 SCT044 BKN055 09/08 A2956 RMK AO2 RAB17E44 SLP006 T00940078 PNO $

Laikas: 17:56 (01:56 UTC)


TAF: trūkstamas

Orai ataskaitas ir orų prognozės (METAR, TAF).

turimą stotys yra geltonos ir raudonos taškus žemėlapyje.

Perkelti pele per norėdami pamatyti stoties vardą.

Tada spustelėkite, norėdami matyti oro stebėjimo ir prognozės.

Norėdami pakeisti žemėlapį: spustelėkite ant žalios mygtukų su juodo kryžiaus žemyn,; žalią mygtuką su brūkšneliu, jei norite nutolinti; arba žalių rodyklių gretimoms žemėlapius.


METAR-TAF: